Plover, Iowa
Current Conditions -  °F | °C
As of 3:55 AM on Wednesday 26 Nov 2014 (Local Time) from KAXA Reporting Station
Light Snow Light Snow  
Wind Chill: 14°   Ceiling: Unl
Heat Index: 27°   Visibility: 1.2mi
Dew Point: 27°   Wind: 16mph
Humidity: 100%   Direction: 130°SE
Pressure: 29.88"   Gusts: NA
Location:  42.88°N, 94.62°W
Report Text: KAXA 260955Z AUTO 13014KT 1 1/4SM -SN FEW004 SCT013 SCT018 M03/M03 A2988 RMK AO2 P0001
Loading
Personal Weather Stations






























Interactive Weather Map New forecast layout! Learn more

10-Day Weather Forecast

Advertisements
Track Severe Weather on mobile